Time;durP1;ratioP1;P1;durP2;ratioP2;P2;SDS_P1;SDS_P2;PMS_P1;PMS_P2;Temp;Humidity;BMP_temperature;BMP_pressure;BME280_temperature;BME280_humidity;BME280_pressure;Samples;Min_cycle;Max_cycle;Signal;HPM_P1;HPM_P2
2023/06/07 00:01:42;;;;;;;24.67;14.27;;;;;;;;;;4953096;28;20253;-80
2023/06/07 00:04:11;;;;;;;26.07;15.10;;;;;;;;;;4952653;28;20680;-80
2023/06/07 00:06:40;;;;;;;25.20;16.20;;;;;;;;;;4953104;28;20210;-81
2023/06/07 00:09:08;;;;;;;24.63;15.80;;;;;;;;;;4953191;29;20305;-80
2023/06/07 00:11:35;;;;;;;26.60;15.73;;;;;;;;;;4953028;28;20225;-80
2023/06/07 00:14:03;;;;;;;25.60;16.03;;;;;;;;;;4952745;29;20619;-80
2023/06/07 00:16:30;;;;;;;24.33;15.30;;;;;;;;;;4952671;29;20235;-79
2023/06/07 00:18:57;;;;;;;29.43;16.27;;;;;;;;;;4952638;28;20351;-79
2023/06/07 00:21:27;;;;;;;26.10;15.63;;;;;;;;;;4952218;28;20200;-80
2023/06/07 00:23:55;;;;;;;24.93;14.80;;;;;;;;;;4952564;29;20699;-80
2023/06/07 00:26:23;;;;;;;25.73;15.10;;;;;;;;;;4953028;29;20294;-80
2023/06/07 00:28:50;;;;;;;23.43;15.13;;;;;;;;;;4953031;28;20635;-79
2023/06/07 00:31:17;;;;;;;24.63;15.17;;;;;;;;;;4952708;29;20210;-79
2023/06/07 00:33:44;;;;;;;22.73;14.43;;;;;;;;;;4954506;28;20203;-80
2023/06/07 00:36:11;;;;;;;21.83;14.73;;;;;;;;;;4956078;29;20356;-80
2023/06/07 00:38:39;;;;;;;24.83;14.70;;;;;;;;;;4956421;28;20238;-79
2023/06/07 00:41:07;;;;;;;22.60;14.40;;;;;;;;;;4956609;28;20199;-80
2023/06/07 00:43:34;;;;;;;33.63;16.10;;;;;;;;;;4956308;28;20231;-80
2023/06/07 00:46:02;;;;;;;27.07;15.30;;;;;;;;;;4955995;28;20199;-80
2023/06/07 00:48:29;;;;;;;23.57;14.77;;;;;;;;;;4955549;29;20686;-78
2023/06/07 00:50:56;;;;;;;23.07;15.27;;;;;;;;;;4956111;28;20254;-80
2023/06/07 00:53:23;;;;;;;22.20;14.37;;;;;;;;;;4955995;28;20690;-79
2023/06/07 00:55:51;;;;;;;25.53;14.23;;;;;;;;;;4956053;29;20735;-80
2023/06/07 00:58:19;;;;;;;21.63;13.73;;;;;;;;;;4956022;29;20282;-79
2023/06/07 01:00:47;;;;;;;25.07;14.67;;;;;;;;;;4956427;28;20290;-80
2023/06/07 01:03:14;;;;;;;21.97;13.67;;;;;;;;;;4955063;29;20254;-79
2023/06/07 01:05:41;;;;;;;26.03;15.23;;;;;;;;;;4955950;28;20209;-80
2023/06/07 01:08:09;;;;;;;23.83;14.13;;;;;;;;;;4955829;28;20203;-80
2023/06/07 01:10:37;;;;;;;22.90;13.43;;;;;;;;;;4955555;29;20293;-80
2023/06/07 01:13:05;;;;;;;23.73;13.87;;;;;;;;;;4955471;29;20211;-80
2023/06/07 01:15:34;;;;;;;23.30;13.20;;;;;;;;;;4955098;29;20270;-79
2023/06/07 01:18:02;;;;;;;23.27;14.13;;;;;;;;;;4954842;28;20195;-79
2023/06/07 01:20:30;;;;;;;22.93;14.37;;;;;;;;;;4955362;28;20262;-79
2023/06/07 01:22:59;;;;;;;24.53;14.67;;;;;;;;;;4955012;29;20334;-80
2023/06/07 01:25:28;;;;;;;24.83;14.33;;;;;;;;;;4955845;28;20204;-80
2023/06/07 01:27:56;;;;;;;20.03;14.20;;;;;;;;;;4955420;28;20211;-79
2023/06/07 01:30:24;;;;;;;25.20;13.73;;;;;;;;;;4955329;29;20210;-79
2023/06/07 01:32:52;;;;;;;24.07;14.30;;;;;;;;;;4955134;28;20195;-80
2023/06/07 01:35:20;;;;;;;23.57;13.90;;;;;;;;;;4955102;28;20254;-80
2023/06/07 01:37:48;;;;;;;23.00;13.90;;;;;;;;;;4955121;28;20788;-79
2023/06/07 01:40:16;;;;;;;24.20;13.70;;;;;;;;;;4954981;29;20707;-79
2023/06/07 01:42:46;;;;;;;23.20;15.10;;;;;;;;;;4955266;28;20235;-79
2023/06/07 01:45:14;;;;;;;26.00;14.70;;;;;;;;;;4953787;28;20199;-79
2023/06/07 01:47:41;;;;;;;22.83;14.00;;;;;;;;;;4954880;28;20250;-80
2023/06/07 01:50:09;;;;;;;23.77;13.57;;;;;;;;;;4950183;29;20295;-79
2023/06/07 01:52:36;;;;;;;22.37;14.37;;;;;;;;;;4944254;29;20238;-79
2023/06/07 01:55:05;;;;;;;23.83;13.60;;;;;;;;;;4936098;29;20234;-79
2023/06/07 01:57:35;;;;;;;23.90;14.00;;;;;;;;;;4936078;29;20303;-80
2023/06/07 02:00:18;;;;;;;26.83;14.10;;;;;;;;;;4935045;29;20230;-79
2023/06/07 02:02:47;;;;;;;19.43;13.57;;;;;;;;;;4935575;29;20242;-79
2023/06/07 02:05:16;;;;;;;23.40;14.47;;;;;;;;;;4935393;29;20610;-80
2023/06/07 02:07:46;;;;;;;22.40;13.93;;;;;;;;;;4935355;29;20200;-80
2023/06/07 02:10:14;;;;;;;22.97;14.37;;;;;;;;;;4935214;29;20295;-80
2023/06/07 02:12:42;;;;;;;26.70;14.17;;;;;;;;;;4935258;29;20298;-80
2023/06/07 02:15:10;;;;;;;22.33;14.57;;;;;;;;;;4944806;29;20230;-79
2023/06/07 02:17:48;;;;;;;21.97;14.83;;;;;;;;;;4954494;28;20282;-80
2023/06/07 02:20:16;;;;;;;23.07;14.17;;;;;;;;;;4954869;28;20294;-79
2023/06/07 02:22:43;;;;;;;23.17;14.83;;;;;;;;;;4954326;29;20223;-79
2023/06/07 02:25:11;;;;;;;23.07;14.63;;;;;;;;;;4954455;29;20202;-80
2023/06/07 02:27:38;;;;;;;23.60;14.87;;;;;;;;;;4954440;28;20227;-79
2023/06/07 02:30:06;;;;;;;23.20;14.60;;;;;;;;;;4953970;28;20219;-79
2023/06/07 02:32:34;;;;;;;26.37;15.30;;;;;;;;;;4954567;28;20750;-80
2023/06/07 02:35:03;;;;;;;23.23;15.30;;;;;;;;;;4954062;29;20203;-78
2023/06/07 02:37:30;;;;;;;25.17;14.57;;;;;;;;;;4954159;28;20230;-79
2023/06/07 02:39:57;;;;;;;23.57;14.53;;;;;;;;;;4954256;29;20207;-79
2023/06/07 02:42:25;;;;;;;27.17;14.27;;;;;;;;;;4953620;28;20318;-78
2023/06/07 02:44:52;;;;;;;21.27;13.97;;;;;;;;;;4953400;29;20206;-79
2023/06/07 02:47:19;;;;;;;25.77;14.00;;;;;;;;;;4953916;28;20695;-79
2023/06/07 02:49:46;;;;;;;27.67;15.53;;;;;;;;;;4953652;28;20293;-79
2023/06/07 02:52:15;;;;;;;24.83;14.33;;;;;;;;;;4953940;29;20195;-79
2023/06/07 02:54:42;;;;;;;26.37;14.70;;;;;;;;;;4953661;29;20195;-79
2023/06/07 02:57:09;;;;;;;22.63;14.47;;;;;;;;;;4953030;28;20231;-79
2023/06/07 02:59:38;;;;;;;22.63;14.73;;;;;;;;;;4953638;28;20222;-79
2023/06/07 03:02:06;;;;;;;25.77;14.53;;;;;;;;;;4953336;29;20751;-79
2023/06/07 03:04:33;;;;;;;22.63;15.30;;;;;;;;;;4953823;28;20199;-79
2023/06/07 03:07:02;;;;;;;24.90;15.03;;;;;;;;;;4953783;29;20289;-80
2023/06/07 03:09:30;;;;;;;25.90;15.17;;;;;;;;;;4953712;28;20203;-80
2023/06/07 03:11:57;;;;;;;24.90;14.87;;;;;;;;;;4952644;29;20622;-79
2023/06/07 03:14:24;;;;;;;25.80;15.43;;;;;;;;;;4953536;29;20286;-80
2023/06/07 03:16:52;;;;;;;22.27;14.83;;;;;;;;;;4953645;28;20234;-79
2023/06/07 03:19:19;;;;;;;25.07;14.57;;;;;;;;;;4953374;28;20227;-79
2023/06/07 03:21:46;;;;;;;25.83;15.43;;;;;;;;;;4953638;29;20203;-79
2023/06/07 03:24:14;;;;;;;23.77;15.40;;;;;;;;;;4953325;29;20342;-79
2023/06/07 03:26:43;;;;;;;24.57;15.23;;;;;;;;;;4953064;29;20616;-79
2023/06/07 03:29:10;;;;;;;25.40;15.37;;;;;;;;;;4953320;29;20207;-79
2023/06/07 03:31:37;;;;;;;23.63;15.23;;;;;;;;;;4953131;28;20210;-80
2023/06/07 03:34:05;;;;;;;25.83;14.90;;;;;;;;;;4953091;28;20206;-80
2023/06/07 03:36:32;;;;;;;26.53;15.23;;;;;;;;;;4953691;28;20199;-79
2023/06/07 03:38:59;;;;;;;27.83;16.27;;;;;;;;;;4953244;28;20294;-79
2023/06/07 03:41:27;;;;;;;27.07;15.47;;;;;;;;;;4952336;29;20266;-79
2023/06/07 03:43:55;;;;;;;27.37;15.67;;;;;;;;;;4953330;28;20273;-79
2023/06/07 03:46:22;;;;;;;25.93;15.53;;;;;;;;;;4953135;29;20732;-79
2023/06/07 03:48:49;;;;;;;24.27;15.13;;;;;;;;;;4953475;29;20209;-79
2023/06/07 03:51:17;;;;;;;25.57;15.33;;;;;;;;;;4953103;29;20298;-80
2023/06/07 03:53:44;;;;;;;23.90;15.83;;;;;;;;;;4953259;28;20214;-78
2023/06/07 03:56:11;;;;;;;24.30;15.10;;;;;;;;;;4952726;28;20226;-79
2023/06/07 03:58:38;;;;;;;27.27;16.00;;;;;;;;;;4953266;29;20246;-79
2023/06/07 04:01:07;;;;;;;23.37;15.40;;;;;;;;;;4953160;29;20574;-79
2023/06/07 04:03:34;;;;;;;22.90;15.77;;;;;;;;;;4952697;28;20231;-79
2023/06/07 04:06:01;;;;;;;23.27;15.33;;;;;;;;;;4953035;28;20294;-79
2023/06/07 04:08:28;;;;;;;23.93;15.30;;;;;;;;;;4954725;28;20207;-79
2023/06/07 04:10:55;;;;;;;27.37;15.60;;;;;;;;;;4955882;29;20653;-80
2023/06/07 04:13:23;;;;;;;20.33;15.57;;;;;;;;;;4956982;28;20199;-80
2023/06/07 04:15:50;;;;;;;25.07;14.90;;;;;;;;;;4956441;29;20329;-80
2023/06/07 04:18:18;;;;;;;27.50;16.27;;;;;;;;;;4956565;28;20759;-79
2023/06/07 04:20:46;;;;;;;23.73;16.17;;;;;;;;;;4956974;29;20207;-80
2023/06/07 04:23:13;;;;;;;32.03;16.13;;;;;;;;;;4956726;29;20325;-79
2023/06/07 04:25:40;;;;;;;28.20;15.87;;;;;;;;;;4956464;29;20203;-79
2023/06/07 04:28:08;;;;;;;24.13;15.37;;;;;;;;;;4956402;28;20277;-78
2023/06/07 04:30:36;;;;;;;22.33;14.70;;;;;;;;;;4956523;28;20679;-79
2023/06/07 04:33:09;;;;;;;26.97;16.00;;;;;;;;;;4956325;29;20211;-79
2023/06/07 04:35:38;;;;;;;22.30;15.37;;;;;;;;;;4956609;28;20234;-79
2023/06/07 04:38:05;;;;;;;27.23;15.53;;;;;;;;;;4956420;29;20203;-80
2023/06/07 04:40:32;;;;;;;24.60;15.57;;;;;;;;;;4956100;28;20202;-78
2023/06/07 04:43:04;;;;;;;25.23;15.87;;;;;;;;;;4955724;29;20226;-79
2023/06/07 04:45:32;;;;;;;23.47;16.20;;;;;;;;;;4955656;28;20591;-79
2023/06/07 04:48:00;;;;;;;23.07;16.03;;;;;;;;;;4956470;28;20286;-79
2023/06/07 04:50:28;;;;;;;24.60;15.37;;;;;;;;;;4956046;29;20207;-80
2023/06/07 04:53:02;;;;;;;22.83;15.77;;;;;;;;;;4955997;28;20262;-80
2023/06/07 04:55:30;;;;;;;22.67;15.53;;;;;;;;;;4955699;28;20203;-79
2023/06/07 04:57:58;;;;;;;20.73;15.33;;;;;;;;;;4955868;29;20209;-79
2023/06/07 05:00:25;;;;;;;22.00;15.40;;;;;;;;;;4955247;28;20210;-79
2023/06/07 05:02:53;;;;;;;25.90;15.13;;;;;;;;;;4955651;28;20199;-80
2023/06/07 05:05:20;;;;;;;21.80;15.17;;;;;;;;;;4955582;29;20592;-80
2023/06/07 05:07:49;;;;;;;18.40;13.93;;;;;;;;;;4955275;29;20199;-79
2023/06/07 05:10:18;;;;;;;23.90;14.93;;;;;;;;;;4968197;28;20198;-79
2023/06/07 05:12:45;;;;;;;20.97;15.17;;;;;;;;;;4974749;28;20285;-79
2023/06/07 05:15:13;;;;;;;24.13;14.73;;;;;;;;;;4964148;28;20290;-78
2023/06/07 05:17:40;;;;;;;22.17;14.17;;;;;;;;;;4955682;28;20231;-78
2023/06/07 05:20:10;;;;;;;19.40;14.33;;;;;;;;;;4955181;28;20706;-79
2023/06/07 05:22:38;;;;;;;22.87;14.63;;;;;;;;;;4955085;28;20203;-78
2023/06/07 05:25:06;;;;;;;18.93;14.13;;;;;;;;;;4955573;29;20238;-76
2023/06/07 05:27:34;;;;;;;18.20;13.80;;;;;;;;;;4954910;28;20199;-76
2023/06/07 05:30:02;;;;;;;23.17;14.20;;;;;;;;;;4955559;29;20588;-76
2023/06/07 05:32:29;;;;;;;19.33;13.50;;;;;;;;;;4955109;28;20340;-76
2023/06/07 05:34:57;;;;;;;18.80;12.93;;;;;;;;;;4955196;29;20231;-76
2023/06/07 05:37:25;;;;;;;16.73;12.90;;;;;;;;;;4948828;28;20200;-76
2023/06/07 05:39:52;;;;;;;17.87;12.70;;;;;;;;;;4937587;28;20267;-79
2023/06/07 05:42:20;;;;;;;20.77;12.73;;;;;;;;;;4958285;28;20286;-79
2023/06/07 05:44:48;;;;;;;17.47;12.33;;;;;;;;;;4938383;29;20235;-78
2023/06/07 05:47:16;;;;;;;18.40;12.67;;;;;;;;;;4935749;29;20294;-78
2023/06/07 05:49:44;;;;;;;18.55;12.13;;;;;;;;;;4935933;29;20259;-78
2023/06/07 05:52:11;;;;;;;17.13;12.20;;;;;;;;;;4935282;29;20267;-79
2023/06/07 05:54:39;;;;;;;19.10;11.95;;;;;;;;;;4935816;29;20748;-78
2023/06/07 05:57:07;;;;;;;15.77;10.93;;;;;;;;;;4935753;29;20238;-79
2023/06/07 05:59:35;;;;;;;13.80;10.75;;;;;;;;;;4935527;29;20208;-78
2023/06/07 06:02:03;;;;;;;17.33;11.25;;;;;;;;;;4936238;29;20559;-79
2023/06/07 06:04:30;;;;;;;14.30;10.73;;;;;;;;;;4941393;28;20235;-80
2023/06/07 06:06:57;;;;;;;13.85;10.77;;;;;;;;;;4952455;28;20215;-79
2023/06/07 06:09:25;;;;;;;15.02;10.27;;;;;;;;;;4954170;28;20199;-80
2023/06/07 06:11:53;;;;;;;17.02;11.52;;;;;;;;;;4954556;29;20203;-79
2023/06/07 06:14:20;;;;;;;14.60;10.98;;;;;;;;;;4954206;28;20229;-80
2023/06/07 06:16:48;;;;;;;14.27;11.18;;;;;;;;;;4954212;28;20239;-80
2023/06/07 06:19:16;;;;;;;15.75;11.10;;;;;;;;;;4954611;28;20259;-80
2023/06/07 06:21:44;;;;;;;15.27;11.20;;;;;;;;;;4954108;28;20294;-80
2023/06/07 06:24:11;;;;;;;15.00;12.00;;;;;;;;;;4954257;29;20265;-79
2023/06/07 06:26:38;;;;;;;14.75;11.35;;;;;;;;;;4954562;29;20310;-79
2023/06/07 06:29:06;;;;;;;13.80;10.70;;;;;;;;;;4959659;28;20561;-79
2023/06/07 06:31:33;;;;;;;15.00;10.50;;;;;;;;;;4972800;28;20229;-78
2023/06/07 06:34:00;;;;;;;15.95;11.30;;;;;;;;;;4973406;28;20203;-80
2023/06/07 06:36:29;;;;;;;14.35;10.82;;;;;;;;;;4972781;28;20249;-79
2023/06/07 06:38:56;;;;;;;15.32;11.18;;;;;;;;;;4973247;28;20233;-79
2023/06/07 06:41:24;;;;;;;13.23;10.45;;;;;;;;;;4973249;28;20289;-79
2023/06/07 06:43:51;;;;;;;11.68;9.27;;;;;;;;;;4972973;28;20226;-79
2023/06/07 06:46:18;;;;;;;15.23;10.73;;;;;;;;;;4973163;28;20743;-80
2023/06/07 06:48:45;;;;;;;14.73;10.07;;;;;;;;;;4972836;28;20301;-79
2023/06/07 06:51:13;;;;;;;14.13;10.25;;;;;;;;;;4972316;28;20293;-80
2023/06/07 06:53:41;;;;;;;16.20;10.32;;;;;;;;;;4972860;28;20199;-79
2023/06/07 06:56:08;;;;;;;13.88;10.10;;;;;;;;;;4973339;28;20282;-78
2023/06/07 06:58:36;;;;;;;12.80;9.27;;;;;;;;;;4960924;28;20206;-77
2023/06/07 07:01:03;;;;;;;19.65;10.23;;;;;;;;;;4946267;29;20207;-77
2023/06/07 07:03:30;;;;;;;11.90;8.75;;;;;;;;;;4607411;28;10000564;-78
2023/06/07 07:05:58;;;;;;;10.75;8.75;;;;;;;;;;4948545;28;20302;-78
2023/06/07 07:08:25;;;;;;;13.88;9.02;;;;;;;;;;4949172;29;20211;-78
2023/06/07 07:10:53;;;;;;;14.65;8.70;;;;;;;;;;4949134;28;20596;-78
2023/06/07 07:13:21;;;;;;;8.13;7.13;;;;;;;;;;4949287;29;20198;-77
2023/06/07 07:15:48;;;;;;;9.45;7.63;;;;;;;;;;4947595;28;20319;-78
2023/06/07 07:18:15;;;;;;;13.27;7.60;;;;;;;;;;4941629;28;20207;-78
2023/06/07 07:20:43;;;;;;;10.55;8.07;;;;;;;;;;4949053;28;20634;-78
2023/06/07 07:23:10;;;;;;;10.70;7.65;;;;;;;;;;4952163;29;20227;-78
2023/06/07 07:25:37;;;;;;;11.63;7.75;;;;;;;;;;4939581;29;20791;-78
2023/06/07 07:28:06;;;;;;;9.88;7.90;;;;;;;;;;4944638;29;20882;-79
2023/06/07 07:30:33;;;;;;;9.57;7.85;;;;;;;;;;4961644;28;20301;-78
2023/06/07 07:33:00;;;;;;;11.40;7.72;;;;;;;;;;4971690;28;20257;-79
2023/06/07 07:35:27;;;;;;;10.48;7.53;;;;;;;;;;4972403;28;20202;-79
2023/06/07 07:37:55;;;;;;;10.40;7.85;;;;;;;;;;4955484;28;20787;-78
2023/06/07 07:40:22;;;;;;;14.10;7.70;;;;;;;;;;4951814;28;20203;-79
2023/06/07 07:42:50;;;;;;;12.10;8.00;;;;;;;;;;4951822;28;20613;-77
2023/06/07 07:45:18;;;;;;;11.98;7.55;;;;;;;;;;4957179;28;20238;-79
2023/06/07 07:47:46;;;;;;;8.48;7.68;;;;;;;;;;4956597;28;20298;-79
2023/06/07 07:50:13;;;;;;;10.98;7.75;;;;;;;;;;4956498;28;20199;-79
2023/06/07 07:52:41;;;;;;;11.40;8.13;;;;;;;;;;4954646;29;20250;-78
2023/06/07 07:55:08;;;;;;;12.07;7.85;;;;;;;;;;4952668;28;20202;-77
2023/06/07 07:57:36;;;;;;;14.25;8.85;;;;;;;;;;4956423;28;20656;-81
2023/06/07 08:00:04;;;;;;;13.75;9.10;;;;;;;;;;4954677;28;20207;-79
2023/06/07 08:02:33;;;;;;;14.73;9.52;;;;;;;;;;4956236;29;20195;-79
2023/06/07 08:05:00;;;;;;;10.82;9.02;;;;;;;;;;4956475;28;20241;-79
2023/06/07 08:07:27;;;;;;;9.88;8.07;;;;;;;;;;4956290;29;20203;-78
2023/06/07 08:09:55;;;;;;;12.30;7.97;;;;;;;;;;4956411;28;20270;-78
2023/06/07 08:12:22;;;;;;;11.77;8.18;;;;;;;;;;4956243;28;20207;-78
2023/06/07 08:14:49;;;;;;;11.07;7.38;;;;;;;;;;4960122;28;20229;-78
2023/06/07 08:17:18;;;;;;;13.02;7.88;;;;;;;;;;4975319;28;20769;-78
2023/06/07 08:19:46;;;;;;;9.90;7.00;;;;;;;;;;4975830;28;20205;-78
2023/06/07 08:22:14;;;;;;;9.20;6.55;;;;;;;;;;4975738;28;20237;-78
2023/06/07 08:24:41;;;;;;;9.60;7.20;;;;;;;;;;4975825;28;20321;-79
2023/06/07 08:27:08;;;;;;;9.60;6.78;;;;;;;;;;4975530;28;20289;-78
2023/06/07 08:29:36;;;;;;;8.95;6.90;;;;;;;;;;4975552;28;20195;-78
2023/06/07 08:32:03;;;;;;;10.43;7.35;;;;;;;;;;4975066;28;20264;-79
2023/06/07 08:34:30;;;;;;;11.10;7.32;;;;;;;;;;4975859;28;20362;-78
2023/06/07 08:36:59;;;;;;;8.00;6.90;;;;;;;;;;4975307;28;20250;-79
2023/06/07 08:39:26;;;;;;;7.22;5.97;;;;;;;;;;4975161;28;20230;-78
2023/06/07 08:41:53;;;;;;;13.07;6.50;;;;;;;;;;4965069;28;20227;-78
2023/06/07 08:44:21;;;;;;;10.43;6.85;;;;;;;;;;4954196;28;20223;-79
2023/06/07 08:46:49;;;;;;;6.95;5.95;;;;;;;;;;4945784;28;20239;-78
2023/06/07 08:49:16;;;;;;;7.20;6.25;;;;;;;;;;4936291;29;20196;-79
2023/06/07 08:51:44;;;;;;;7.47;5.40;;;;;;;;;;4936649;29;20236;-78
2023/06/07 08:54:15;;;;;;;8.45;6.00;;;;;;;;;;4936376;29;20204;-78
2023/06/07 08:56:42;;;;;;;7.43;6.07;;;;;;;;;;4936552;29;20295;-78
2023/06/07 08:59:10;;;;;;;8.55;5.78;;;;;;;;;;4936786;29;20287;-78
2023/06/07 09:01:38;;;;;;;7.70;5.85;;;;;;;;;;4941824;28;20247;-76
2023/06/07 09:04:05;;;;;;;9.00;5.57;;;;;;;;;;4957611;28;20691;-77
2023/06/07 09:06:34;;;;;;;8.23;5.28;;;;;;;;;;4969922;28;20748;-78
2023/06/07 09:09:02;;;;;;;6.32;5.72;;;;;;;;;;4953445;28;20329;-78
2023/06/07 09:11:31;;;;;;;5.90;5.28;;;;;;;;;;4953712;28;20266;-78
2023/06/07 09:13:58;;;;;;;6.95;5.43;;;;;;;;;;4948150;28;20614;-78
2023/06/07 09:16:26;;;;;;;6.63;5.13;;;;;;;;;;4946521;29;20255;-77
2023/06/07 09:18:55;;;;;;;7.30;5.25;;;;;;;;;;4956407;28;20219;-78
2023/06/07 09:21:22;;;;;;;6.30;5.07;;;;;;;;;;4955022;29;20203;-78
2023/06/07 09:23:49;;;;;;;6.55;5.15;;;;;;;;;;4949847;28;20203;-78
2023/06/07 09:26:17;;;;;;;5.97;4.82;;;;;;;;;;4946025;28;20223;-79
2023/06/07 09:28:46;;;;;;;6.72;4.82;;;;;;;;;;4947603;28;20687;-78
2023/06/07 09:31:14;;;;;;;7.53;5.05;;;;;;;;;;4943519;29;20283;-79
2023/06/07 09:33:41;;;;;;;6.90;4.70;;;;;;;;;;4946615;28;20801;-78
2023/06/07 09:36:09;;;;;;;5.43;4.93;;;;;;;;;;4955727;28;20203;-78
2023/06/07 09:38:37;;;;;;;7.80;5.35;;;;;;;;;;4962922;28;20676;-79
2023/06/07 09:41:05;;;;;;;6.13;4.85;;;;;;;;;;4951937;28;20538;-78
2023/06/07 09:43:47;;;;;;;6.72;4.93;;;;;;;;;;4961354;28;20294;-78
2023/06/07 09:46:15;;;;;;;5.25;4.75;;;;;;;;;;4970332;28;20226;-78
2023/06/07 09:48:49;;;;;;;10.20;4.95;;;;;;;;;;4959928;28;20230;-78
2023/06/07 09:51:18;;;;;;;5.63;4.88;;;;;;;;;;4958442;28;20206;-78
2023/06/07 09:53:52;;;;;;;7.47;4.95;;;;;;;;;;4969956;28;20205;-77
2023/06/07 09:56:20;;;;;;;7.20;4.85;;;;;;;;;;4974393;28;20209;-78
2023/06/07 09:58:50;;;;;;;6.32;4.75;;;;;;;;;;4959561;28;20623;-78
2023/06/07 10:01:32;;;;;;;7.72;4.88;;;;;;;;;;4951801;28;20195;-78
2023/06/07 10:03:59;;;;;;;5.60;4.60;;;;;;;;;;4954332;28;20199;-78
2023/06/07 10:06:27;;;;;;;7.30;4.90;;;;;;;;;;4951823;28;20758;-78
2023/06/07 10:08:54;;;;;;;5.50;4.45;;;;;;;;;;4952174;29;20247;-79
2023/06/07 10:11:22;;;;;;;7.10;4.40;;;;;;;;;;4950015;28;20239;-79
2023/06/07 10:13:52;;;;;;;5.82;4.75;;;;;;;;;;4952704;28;20290;-77
2023/06/07 10:16:20;;;;;;;5.45;4.85;;;;;;;;;;4954095;28;20302;-77
2023/06/07 10:18:49;;;;;;;7.00;5.00;;;;;;;;;;4954135;29;20254;-78
2023/06/07 10:21:20;;;;;;;5.45;4.82;;;;;;;;;;4954472;28;20210;-78
2023/06/07 10:23:52;;;;;;;8.10;4.28;;;;;;;;;;4954564;28;20262;-78
2023/06/07 10:26:21;;;;;;;4.85;4.45;;;;;;;;;;4954380;28;20242;-77
2023/06/07 10:28:54;;;;;;;6.50;4.63;;;;;;;;;;4953208;28;20214;-78
2023/06/07 10:31:24;;;;;;;5.55;4.88;;;;;;;;;;4953524;29;20533;-78
2023/06/07 10:33:52;;;;;;;6.47;4.45;;;;;;;;;;4946844;28;20307;-78
2023/06/07 10:36:23;;;;;;;4.95;4.07;;;;;;;;;;4941484;28;20204;-78
2023/06/07 10:38:51;;;;;;;5.20;4.57;;;;;;;;;;4943111;28;20212;-78
2023/06/07 10:41:19;;;;;;;6.00;4.55;;;;;;;;;;4953428;29;20234;-78
2023/06/07 10:43:46;;;;;;;6.95;4.70;;;;;;;;;;4953614;29;20294;-77
2023/06/07 10:46:23;;;;;;;5.53;4.70;;;;;;;;;;4953309;29;20230;-77
2023/06/07 10:48:50;;;;;;;5.30;4.22;;;;;;;;;;4953297;28;20209;-78
2023/06/07 10:51:19;;;;;;;10.85;4.50;;;;;;;;;;4951087;28;20235;-78
2023/06/07 10:53:54;;;;;;;5.30;4.30;;;;;;;;;;4945639;29;20204;-78
2023/06/07 10:56:28;;;;;;;4.70;4.22;;;;;;;;;;4947377;28;20199;-77
2023/06/07 10:58:56;;;;;;;5.45;4.90;;;;;;;;;;4954024;28;20281;-78
2023/06/07 11:01:25;;;;;;;9.52;4.65;;;;;;;;;;4953690;28;20293;-79
2023/06/07 11:03:53;;;;;;;5.55;4.72;;;;;;;;;;4959560;28;20225;-79
2023/06/07 11:06:20;;;;;;;5.60;4.53;;;;;;;;;;4972979;28;20269;-79
2023/06/07 11:08:49;;;;;;;4.93;4.43;;;;;;;;;;4972844;28;20289;-79
2023/06/07 11:11:49;;;;;;;7.43;4.88;;;;;;;;;;4972047;28;20681;-80
2023/06/07 11:14:17;;;;;;;5.38;4.68;;;;;;;;;;4970040;28;20298;-79
2023/06/07 11:16:45;;;;;;;6.05;4.75;;;;;;;;;;4955916;28;20238;-80
2023/06/07 11:19:16;;;;;;;5.25;4.55;;;;;;;;;;4973645;28;20198;-80
2023/06/07 11:22:04;;;;;;;5.28;4.78;;;;;;;;;;4972606;28;20253;-79
2023/06/07 11:24:31;;;;;;;9.48;5.00;;;;;;;;;;4972317;28;20569;-78
2023/06/07 11:26:58;;;;;;;5.97;5.07;;;;;;;;;;4968737;28;20265;-78
2023/06/07 11:29:25;;;;;;;5.95;4.82;;;;;;;;;;4950050;28;20263;-84
2023/06/07 11:31:59;;;;;;;6.03;4.60;;;;;;;;;;4955224;28;20207;-85
2023/06/07 11:34:27;;;;;;;8.90;5.07;;;;;;;;;;4947257;28;20202;-85
2023/06/07 11:37:06;;;;;;;10.63;4.53;;;;;;;;;;4957149;28;20267;-85
2023/06/07 11:39:34;;;;;;;5.18;4.70;;;;;;;;;;4952022;28;20207;-86
2023/06/07 11:42:02;;;;;;;5.43;4.88;;;;;;;;;;4954059;28;20205;-85
2023/06/07 11:44:29;;;;;;;6.85;4.78;;;;;;;;;;4947159;28;20196;-85
2023/06/07 11:46:58;;;;;;;5.97;5.18;;;;;;;;;;4950212;28;20237;-84
2023/06/07 11:49:28;;;;;;;7.55;4.53;;;;;;;;;;4952147;28;20290;-84
2023/06/07 11:51:58;;;;;;;5.45;4.70;;;;;;;;;;4948678;28;20203;-85
2023/06/07 11:54:25;;;;;;;6.90;4.70;;;;;;;;;;4944520;28;20212;-84
2023/06/07 11:56:53;;;;;;;8.48;4.78;;;;;;;;;;4946448;29;20258;-85
2023/06/07 11:59:22;;;;;;;8.60;5.05;;;;;;;;;;4965239;28;20731;-85
2023/06/07 12:01:52;;;;;;;5.75;4.80;;;;;;;;;;4958057;28;20213;-87
2023/06/07 12:04:20;;;;;;;4.50;4.18;;;;;;;;;;4955974;28;20205;-86
2023/06/07 12:06:49;;;;;;;7.53;4.50;;;;;;;;;;4965160;28;20310;-87
2023/06/07 12:09:18;;;;;;;4.60;4.20;;;;;;;;;;4953307;28;20237;-86
2023/06/07 12:11:46;;;;;;;5.28;4.53;;;;;;;;;;4953361;28;20234;-86
2023/06/07 12:14:14;;;;;;;5.10;4.60;;;;;;;;;;4962351;28;20262;-87
2023/06/07 12:16:41;;;;;;;9.23;4.93;;;;;;;;;;4964317;28;20238;-86
2023/06/07 12:19:08;;;;;;;5.70;4.40;;;;;;;;;;4972810;28;20785;-85
2023/06/07 12:21:36;;;;;;;5.43;4.82;;;;;;;;;;4956216;28;20199;-85
2023/06/07 12:24:05;;;;;;;5.90;4.60;;;;;;;;;;4968341;28;20216;-86
2023/06/07 12:26:38;;;;;;;4.80;4.28;;;;;;;;;;4957918;28;20711;-85
2023/06/07 12:29:05;;;;;;;7.85;4.80;;;;;;;;;;4964680;28;20199;-85
2023/06/07 12:31:32;;;;;;;6.10;4.63;;;;;;;;;;4969402;28;20198;-86
2023/06/07 12:34:01;;;;;;;5.50;4.38;;;;;;;;;;4959368;28;20253;-86
2023/06/07 12:36:29;;;;;;;6.72;4.85;;;;;;;;;;4959806;28;20206;-85
2023/06/07 12:38:59;;;;;;;8.35;4.50;;;;;;;;;;4963174;28;20230;-84
2023/06/07 12:41:28;;;;;;;6.25;4.57;;;;;;;;;;4960495;28;20202;-88
2023/06/07 12:43:56;;;;;;;5.55;5.00;;;;;;;;;;4960295;28;20229;-87
2023/06/07 12:46:24;;;;;;;5.00;4.60;;;;;;;;;;4958555;28;20655;-87
2023/06/07 12:48:52;;;;;;;6.18;4.93;;;;;;;;;;4976438;28;20687;-86
2023/06/07 12:51:19;;;;;;;6.05;4.93;;;;;;;;;;4969175;28;20661;-87
2023/06/07 12:53:46;;;;;;;6.22;4.97;;;;;;;;;;4955588;28;20235;-86
2023/06/07 12:56:14;;;;;;;7.93;5.07;;;;;;;;;;4957464;28;20234;-87
2023/06/07 12:58:43;;;;;;;5.78;5.05;;;;;;;;;;4956018;28;20226;-86
2023/06/07 13:01:10;;;;;;;5.65;5.13;;;;;;;;;;4957202;28;20264;-86
2023/06/07 13:03:38;;;;;;;5.30;4.60;;;;;;;;;;4950624;28;20637;-86
2023/06/07 13:06:05;;;;;;;6.50;4.57;;;;;;;;;;4952675;29;20254;-91
2023/06/07 13:08:32;;;;;;;6.00;5.07;;;;;;;;;;4949271;28;20240;-88
2023/06/07 13:11:00;;;;;;;6.32;5.22;;;;;;;;;;4951582;28;20234;-92
2023/06/07 13:13:28;;;;;;;10.32;5.30;;;;;;;;;;4947294;28;20211;-89
2023/06/07 13:15:58;;;;;;;5.75;5.25;;;;;;;;;;4953755;29;20709;-87
2023/06/07 13:18:27;;;;;;;5.97;5.38;;;;;;;;;;4948050;28;20196;-85
2023/06/07 13:20:55;;;;;;;10.23;5.68;;;;;;;;;;4969968;28;20202;-85
2023/06/07 13:23:22;;;;;;;7.63;5.50;;;;;;;;;;4961231;28;20191;-87
2023/06/07 13:25:49;;;;;;;7.63;5.45;;;;;;;;;;4965211;28;20223;-87
2023/06/07 13:28:17;;;;;;;6.28;5.30;;;;;;;;;;4969651;28;21269;-87
2023/06/07 13:30:44;;;;;;;5.95;5.45;;;;;;;;;;4975090;28;20202;-85
2023/06/07 13:33:19;;;;;;;5.47;4.97;;;;;;;;;;4970801;28;20226;-86
2023/06/07 13:35:46;;;;;;;5.78;5.18;;;;;;;;;;4955068;28;20295;-87
2023/06/07 13:38:13;;;;;;;6.18;5.57;;;;;;;;;;4968885;28;20286;-85
2023/06/07 13:40:40;;;;;;;6.07;5.47;;;;;;;;;;4958236;28;20282;-87
2023/06/07 13:43:08;;;;;;;10.80;6.03;;;;;;;;;;4970691;28;20229;-85
2023/06/07 13:45:35;;;;;;;6.90;5.88;;;;;;;;;;4963111;28;20709;-86
2023/06/07 13:48:03;;;;;;;10.50;5.40;;;;;;;;;;4963379;28;20285;-85
2023/06/07 13:50:31;;;;;;;5.85;5.25;;;;;;;;;;4970566;28;20202;-88
2023/06/07 13:52:58;;;;;;;15.00;5.50;;;;;;;;;;4958931;28;20202;-85
2023/06/07 13:55:26;;;;;;;6.30;5.70;;;;;;;;;;4968122;28;20615;-85
2023/06/07 13:57:54;;;;;;;7.90;5.90;;;;;;;;;;4965309;28;20218;-86
2023/06/07 14:00:22;;;;;;;9.20;5.65;;;;;;;;;;4961166;28;20757;-86
2023/06/07 14:02:49;;;;;;;7.68;5.57;;;;;;;;;;4968605;28;20198;-86
2023/06/07 14:05:17;;;;;;;7.68;4.97;;;;;;;;;;4951914;28;20196;-86
2023/06/07 14:07:46;;;;;;;5.88;5.38;;;;;;;;;;4956824;28;20261;-85
2023/06/07 14:10:13;;;;;;;5.78;5.00;;;;;;;;;;4970693;28;20293;-85
2023/06/07 14:12:42;;;;;;;6.38;5.25;;;;;;;;;;4955312;28;20218;-86
2023/06/07 14:15:09;;;;;;;6.75;5.53;;;;;;;;;;4955617;28;20228;-86
2023/06/07 14:17:37;;;;;;;6.13;5.40;;;;;;;;;;4955952;28;20365;-86
2023/06/07 14:20:05;;;;;;;8.63;5.68;;;;;;;;;;4968355;28;20202;-86
2023/06/07 14:22:32;;;;;;;10.95;5.05;;;;;;;;;;4956809;28;20233;-86
2023/06/07 14:25:00;;;;;;;7.90;5.57;;;;;;;;;;4960791;28;20281;-86
2023/06/07 14:27:28;;;;;;;7.55;5.47;;;;;;;;;;4965604;28;20284;-86
2023/06/07 14:29:55;;;;;;;5.95;5.30;;;;;;;;;;4955713;28;20195;-86
2023/06/07 14:32:22;;;;;;;6.82;5.30;;;;;;;;;;4955498;28;20234;-85
2023/06/07 14:34:49;;;;;;;5.68;5.13;;;;;;;;;;4974016;28;20206;-85